Pagina principală
METAR-TAF:

METAR-TAF

Aeroporturi :

De Queen, Arkansas, Statele Unite ale Americii

Latitudine: 34-02-49N, longitudine: 094-23-58W, elevație: 108 m

Observații meteo curente

Raportul a fost făcut în urmă cu 56 de minute, la 21:53 UTC
Vânt 7 kt de la Vest
Temperatură 34°C
Umiditate 50%
Presiune 1014 hPa
Vizibilitate: 16.1 km
Nori puțini la o înălțime de 5000 picior

METAR: KDEQ 222153Z AUTO 26007KT 10SM FEW050 34/22 A2995 RMK AO2 SLP135 T03440222

Ora: 17:49 (22:49 UTC)


TAF: lipsă

Observații și prognoze meteo pentru peste 4.000 de aeroporturi (rapoarte METAR și TAF).

Stațiile disponibile sunt reprezentate pe hartă prin puncte galbene și roșii.

Țineți indicatorul mouse-ului pe punctul dorit pentru a vedea denumirea stației.

Apoi, faceți clic pentru a vedea observațiile și prognozele meteorologice.

Pentru a schimba harta: Pentru mărire, faceți clic pe butoanele verzi cu cruce neagră; pentru micșorare, pe butonul verde cu o liniuță; pentru hărți învecinate, pe săgețile verzi.


METAR-TAF: